sensor_id;sensor_type;location;lat;lon;timestamp;pressure;altitude;pressure_sealevel;temperature;humidity
65173;BME280;69059;52.218;5.172;2023-07-31T00:01:25;98268.34;;;15.83;100.00
65173;BME280;69059;52.218;5.172;2023-07-31T00:04:13;98265.19;;;15.86;100.00
65173;BME280;69059;52.218;5.172;2023-07-31T00:07:03;98255.56;;;16.05;100.00
65173;BME280;69059;52.218;5.172;2023-07-31T00:09:52;98254.28;;;16.03;100.00
65173;BME280;69059;52.218;5.172;2023-07-31T00:12:42;98242.56;;;16.19;100.00
65173;BME280;69059;52.218;5.172;2023-07-31T00:15:30;98230.53;;;16.37;100.00
65173;BME280;69059;52.218;5.172;2023-07-31T00:18:18;98237.75;;;16.26;100.00
65173;BME280;69059;52.218;5.172;2023-07-31T00:21:06;98236.97;;;16.26;100.00
65173;BME280;69059;52.218;5.172;2023-07-31T00:23:55;98211.69;;;16.25;100.00
65173;BME280;69059;52.218;5.172;2023-07-31T00:26:43;98230.25;;;16.38;100.00
65173;BME280;69059;52.218;5.172;2023-07-31T00:29:31;98234.81;;;16.33;100.00
65173;BME280;69059;52.218;5.172;2023-07-31T00:32:19;98240.50;;;16.40;100.00
65173;BME280;69059;52.218;5.172;2023-07-31T00:35:07;98214.09;;;16.21;100.00
65173;BME280;69059;52.218;5.172;2023-07-31T00:37:56;98230.72;;;16.45;100.00
65173;BME280;69059;52.218;5.172;2023-07-31T00:40:45;98226.56;;;16.39;100.00
65173;BME280;69059;52.218;5.172;2023-07-31T00:43:33;98238.16;;;16.38;100.00
65173;BME280;69059;52.218;5.172;2023-07-31T00:46:21;98238.72;;;16.35;100.00
65173;BME280;69059;52.218;5.172;2023-07-31T00:49:08;98228.69;;;16.37;100.00
65173;BME280;69059;52.218;5.172;2023-07-31T00:51:57;98225.25;;;16.37;100.00
65173;BME280;69059;52.218;5.172;2023-07-31T00:54:45;98222.09;;;16.40;100.00
65173;BME280;69059;52.218;5.172;2023-07-31T00:57:35;98222.34;;;16.38;100.00
65173;BME280;69059;52.218;5.172;2023-07-31T01:00:24;98236.31;;;16.39;100.00
65173;BME280;69059;52.218;5.172;2023-07-31T01:03:12;98231.59;;;16.36;100.00
65173;BME280;69059;52.218;5.172;2023-07-31T01:06:03;98236.66;;;16.32;100.00
65173;BME280;69059;52.218;5.172;2023-07-31T01:08:57;98249.56;;;16.29;100.00
65173;BME280;69059;52.218;5.172;2023-07-31T01:11:52;98239.66;;;16.21;100.00
65173;BME280;69059;52.218;5.172;2023-07-31T01:14:42;98244.72;;;16.12;100.00
65173;BME280;69059;52.218;5.172;2023-07-31T01:17:38;98241.53;;;16.15;100.00
65173;BME280;69059;52.218;5.172;2023-07-31T01:20:27;98236.78;;;16.17;100.00
65173;BME280;69059;52.218;5.172;2023-07-31T01:23:23;98236.03;;;16.11;100.00
65173;BME280;69059;52.218;5.172;2023-07-31T01:26:18;98239.19;;;16.13;100.00
65173;BME280;69059;52.218;5.172;2023-07-31T01:29:07;98240.50;;;16.11;100.00
65173;BME280;69059;52.218;5.172;2023-07-31T01:31:58;98250.03;;;16.07;100.00
65173;BME280;69059;52.218;5.172;2023-07-31T01:34:48;98251.31;;;16.09;100.00
65173;BME280;69059;52.218;5.172;2023-07-31T01:37:36;98259.44;;;16.13;100.00
65173;BME280;69059;52.218;5.172;2023-07-31T01:40:24;98258.09;;;16.21;100.00
65173;BME280;69059;52.218;5.172;2023-07-31T01:43:13;98256.00;;;16.18;100.00
65173;BME280;69059;52.218;5.172;2023-07-31T01:46:01;98262.56;;;16.20;100.00
65173;BME280;69059;52.218;5.172;2023-07-31T01:48:50;98266.47;;;16.23;100.00
65173;BME280;69059;52.218;5.172;2023-07-31T01:51:38;98263.03;;;16.22;100.00
65173;BME280;69059;52.218;5.172;2023-07-31T01:54:26;98267.22;;;16.28;100.00
65173;BME280;69059;52.218;5.172;2023-07-31T01:57:14;98251.47;;;16.23;100.00
65173;BME280;69059;52.218;5.172;2023-07-31T02:00:04;98255.44;;;16.21;100.00
65173;BME280;69059;52.218;5.172;2023-07-31T02:02:52;98236.84;;;16.36;100.00
65173;BME280;69059;52.218;5.172;2023-07-31T02:05:43;98228.13;;;16.40;100.00
65173;BME280;69059;52.218;5.172;2023-07-31T02:08:31;98229.03;;;16.31;100.00
65173;BME280;69059;52.218;5.172;2023-07-31T02:11:19;98236.94;;;16.31;100.00
65173;BME280;69059;52.218;5.172;2023-07-31T02:14:07;98218.94;;;16.38;100.00
65173;BME280;69059;52.218;5.172;2023-07-31T02:16:56;98233.78;;;16.29;100.00
65173;BME280;69059;52.218;5.172;2023-07-31T02:19:44;98216.38;;;16.33;100.00
65173;BME280;69059;52.218;5.172;2023-07-31T02:22:32;98217.16;;;16.33;100.00
65173;BME280;69059;52.218;5.172;2023-07-31T02:25:20;98221.91;;;16.31;100.00
65173;BME280;69059;52.218;5.172;2023-07-31T02:28:08;98213.75;;;16.33;100.00
65173;BME280;69059;52.218;5.172;2023-07-31T02:30:56;98224.53;;;16.31;100.00
65173;BME280;69059;52.218;5.172;2023-07-31T02:33:45;98228.44;;;16.34;100.00
65173;BME280;69059;52.218;5.172;2023-07-31T02:36:33;98231.16;;;16.29;100.00
65173;BME280;69059;52.218;5.172;2023-07-31T02:39:21;98241.94;;;16.27;100.00
65173;BME280;69059;52.218;5.172;2023-07-31T02:42:09;98234.22;;;16.36;100.00
65173;BME280;69059;52.218;5.172;2023-07-31T02:44:57;98239.59;;;16.26;100.00
65173;BME280;69059;52.218;5.172;2023-07-31T02:47:45;98236.19;;;16.25;100.00
65173;BME280;69059;52.218;5.172;2023-07-31T02:50:34;98219.56;;;16.30;100.00
65173;BME280;69059;52.218;5.172;2023-07-31T02:53:22;98230.63;;;16.27;100.00
65173;BME280;69059;52.218;5.172;2023-07-31T02:56:10;98222.13;;;16.35;100.00
65173;BME280;69059;52.218;5.172;2023-07-31T02:58:58;98233.00;;;16.28;100.00
65173;BME280;69059;52.218;5.172;2023-07-31T03:01:46;98223.69;;;16.36;100.00
65173;BME280;69059;52.218;5.172;2023-07-31T03:04:34;98237.19;;;16.29;100.00
65173;BME280;69059;52.218;5.172;2023-07-31T03:07:23;98232.91;;;16.38;100.00
65173;BME280;69059;52.218;5.172;2023-07-31T03:10:11;98224.19;;;16.38;100.00
65173;BME280;69059;52.218;5.172;2023-07-31T03:12:59;98212.50;;;16.49;100.00
65173;BME280;69059;52.218;5.172;2023-07-31T03:15:47;98217.56;;;16.45;100.00
65173;BME280;69059;52.218;5.172;2023-07-31T03:18:35;98209.69;;;16.40;100.00
65173;BME280;69059;52.218;5.172;2023-07-31T03:21:23;98221.53;;;16.43;100.00
65173;BME280;69059;52.218;5.172;2023-07-31T03:24:12;98221.06;;;16.36;100.00
65173;BME280;69059;52.218;5.172;2023-07-31T03:27:00;98226.91;;;16.33;100.00
65173;BME280;69059;52.218;5.172;2023-07-31T03:29:48;98222.59;;;16.42;100.00
65173;BME280;69059;52.218;5.172;2023-07-31T03:32:38;98221.28;;;16.39;100.00
65173;BME280;69059;52.218;5.172;2023-07-31T03:35:26;98211.31;;;16.36;100.00
65173;BME280;69059;52.218;5.172;2023-07-31T03:38:14;98221.41;;;16.29;100.00
65173;BME280;69059;52.218;5.172;2023-07-31T03:41:03;98228.00;;;16.27;100.00
65173;BME280;69059;52.218;5.172;2023-07-31T03:43:52;98217.91;;;16.34;100.00
65173;BME280;69059;52.218;5.172;2023-07-31T03:46:42;98211.97;;;16.23;100.00
65173;BME280;69059;52.218;5.172;2023-07-31T03:49:31;98211.91;;;16.33;100.00
65173;BME280;69059;52.218;5.172;2023-07-31T03:52:19;98204.31;;;16.27;100.00
65173;BME280;69059;52.218;5.172;2023-07-31T03:55:07;98219.03;;;16.28;100.00
65173;BME280;69059;52.218;5.172;2023-07-31T03:57:56;98218.03;;;16.24;100.00
65173;BME280;69059;52.218;5.172;2023-07-31T04:00:45;98213.88;;;16.18;100.00
65173;BME280;69059;52.218;5.172;2023-07-31T04:03:33;98219.69;;;16.15;100.00
65173;BME280;69059;52.218;5.172;2023-07-31T04:06:21;98219.16;;;16.18;100.00
65173;BME280;69059;52.218;5.172;2023-07-31T04:09:09;98228.91;;;16.12;100.00
65173;BME280;69059;52.218;5.172;2023-07-31T04:11:57;98247.19;;;15.98;100.00
65173;BME280;69059;52.218;5.172;2023-07-31T04:14:46;98255.94;;;15.94;100.00
65173;BME280;69059;52.218;5.172;2023-07-31T04:17:34;98256.16;;;15.97;100.00
65173;BME280;69059;52.218;5.172;2023-07-31T04:20:22;98255.88;;;15.99;100.00
65173;BME280;69059;52.218;5.172;2023-07-31T04:23:10;98266.94;;;15.96;100.00
65173;BME280;69059;52.218;5.172;2023-07-31T04:25:58;98267.47;;;15.98;100.00
65173;BME280;69059;52.218;5.172;2023-07-31T04:28:46;98247.13;;;15.74;100.00
65173;BME280;69059;52.218;5.172;2023-07-31T04:31:35;98279.56;;;15.99;100.00
65173;BME280;69059;52.218;5.172;2023-07-31T04:34:25;98278.47;;;16.05;100.00
65173;BME280;69059;52.218;5.172;2023-07-31T04:37:13;98273.22;;;16.05;100.00
65173;BME280;69059;52.218;5.172;2023-07-31T04:40:01;98277.16;;;16.02;100.00
65173;BME280;69059;52.218;5.172;2023-07-31T04:42:49;98271.72;;;15.94;100.00
65173;BME280;69059;52.218;5.172;2023-07-31T04:45:37;98277.28;;;15.87;100.00
65173;BME280;69059;52.218;5.172;2023-07-31T04:48:26;98274.13;;;15.85;100.00
65173;BME280;69059;52.218;5.172;2023-07-31T04:51:14;98275.78;;;15.76;100.00
65173;BME280;69059;52.218;5.172;2023-07-31T04:54:02;98277.00;;;15.89;100.00
65173;BME280;69059;52.218;5.172;2023-07-31T04:56:50;98261.22;;;15.89;100.00
65173;BME280;69059;52.218;5.172;2023-07-31T04:59:38;98267.09;;;15.75;100.00
65173;BME280;69059;52.218;5.172;2023-07-31T05:02:26;98261.03;;;15.80;100.00
65173;BME280;69059;52.218;5.172;2023-07-31T05:05:16;98273.47;;;15.69;100.00
65173;BME280;69059;52.218;5.172;2023-07-31T05:08:04;98264.00;;;15.68;100.00
65173;BME280;69059;52.218;5.172;2023-07-31T05:10:52;98275.31;;;15.64;100.00
65173;BME280;69059;52.218;5.172;2023-07-31T05:13:40;98272.44;;;15.60;100.00
65173;BME280;69059;52.218;5.172;2023-07-31T05:16:27;98266.66;;;15.58;100.00
65173;BME280;69059;52.218;5.172;2023-07-31T05:19:16;98255.41;;;15.58;100.00
65173;BME280;69059;52.218;5.172;2023-07-31T05:22:05;98247.19;;;15.64;100.00
65173;BME280;69059;52.218;5.172;2023-07-31T05:24:53;98257.22;;;15.52;100.00
65173;BME280;69059;52.218;5.172;2023-07-31T05:27:41;98228.81;;;15.54;100.00
65173;BME280;69059;52.218;5.172;2023-07-31T05:30:29;98228.06;;;15.49;100.00
65173;BME280;69059;52.218;5.172;2023-07-31T05:33:17;98223.84;;;15.48;100.00
65173;BME280;69059;52.218;5.172;2023-07-31T05:36:05;98215.75;;;15.44;100.00
65173;BME280;69059;52.218;5.172;2023-07-31T05:38:55;98206.50;;;15.47;100.00
65173;BME280;69059;52.218;5.172;2023-07-31T05:41:43;98187.03;;;15.48;100.00
65173;BME280;69059;52.218;5.172;2023-07-31T05:44:30;98177.03;;;15.55;100.00
65173;BME280;69059;52.218;5.172;2023-07-31T05:47:18;98164.69;;;15.50;100.00
65173;BME280;69059;52.218;5.172;2023-07-31T05:50:07;98161.50;;;15.53;100.00
65173;BME280;69059;52.218;5.172;2023-07-31T05:52:55;98155.47;;;15.53;100.00
65173;BME280;69059;52.218;5.172;2023-07-31T05:55:44;98148.84;;;15.60;100.00
65173;BME280;69059;52.218;5.172;2023-07-31T05:58:32;98146.22;;;15.60;100.00
65173;BME280;69059;52.218;5.172;2023-07-31T06:01:20;98134.13;;;15.59;100.00
65173;BME280;69059;52.218;5.172;2023-07-31T06:04:08;98147.06;;;15.51;100.00
65173;BME280;69059;52.218;5.172;2023-07-31T06:06:56;98130.16;;;15.62;100.00
65173;BME280;69059;52.218;5.172;2023-07-31T06:09:44;98116.19;;;15.66;100.00
65173;BME280;69059;52.218;5.172;2023-07-31T06:12:34;98111.75;;;15.62;100.00
65173;BME280;69059;52.218;5.172;2023-07-31T06:15:22;98107.28;;;15.62;100.00
65173;BME280;69059;52.218;5.172;2023-07-31T06:18:10;98093.34;;;15.62;100.00
65173;BME280;69059;52.218;5.172;2023-07-31T06:20:57;98084.56;;;15.71;100.00
65173;BME280;69059;52.218;5.172;2023-07-31T06:23:45;98085.94;;;15.69;100.00
65173;BME280;69059;52.218;5.172;2023-07-31T06:26:33;98061.47;;;15.68;100.00
65173;BME280;69059;52.218;5.172;2023-07-31T06:29:23;98068.59;;;15.68;100.00
65173;BME280;69059;52.218;5.172;2023-07-31T06:32:10;98059.63;;;15.69;100.00
65173;BME280;69059;52.218;5.172;2023-07-31T06:34:59;98049.56;;;15.76;100.00
65173;BME280;69059;52.218;5.172;2023-07-31T06:37:47;98051.69;;;15.74;100.00
65173;BME280;69059;52.218;5.172;2023-07-31T06:40:35;98045.38;;;15.75;100.00
65173;BME280;69059;52.218;5.172;2023-07-31T06:43:23;98023.94;;;15.87;100.00
65173;BME280;69059;52.218;5.172;2023-07-31T06:46:16;98021.53;;;15.90;100.00
65173;BME280;69059;52.218;5.172;2023-07-31T06:49:04;98010.97;;;15.95;100.00
65173;BME280;69059;52.218;5.172;2023-07-31T06:51:52;98011.50;;;15.92;100.00
65173;BME280;69059;52.218;5.172;2023-07-31T06:54:40;97993.25;;;15.77;100.00
65173;BME280;69059;52.218;5.172;2023-07-31T06:57:27;98001.94;;;16.01;100.00
65173;BME280;69059;52.218;5.172;2023-07-31T07:00:15;97975.34;;;15.79;100.00
65173;BME280;69059;52.218;5.172;2023-07-31T07:03:05;97997.72;;;16.00;100.00
65173;BME280;69059;52.218;5.172;2023-07-31T07:05:53;97994.75;;;16.07;100.00
65173;BME280;69059;52.218;5.172;2023-07-31T07:08:41;97999.56;;;16.00;100.00
65173;BME280;69059;52.218;5.172;2023-07-31T07:11:28;97983.94;;;16.08;100.00
65173;BME280;69059;52.218;5.172;2023-07-31T07:14:16;97970.78;;;16.08;100.00
65173;BME280;69059;52.218;5.172;2023-07-31T07:17:05;97961.75;;;16.15;100.00
65173;BME280;69059;52.218;5.172;2023-07-31T07:19:54;97965.47;;;16.13;100.00
65173;BME280;69059;52.218;5.172;2023-07-31T07:22:42;97961.63;;;16.25;100.00
65173;BME280;69059;52.218;5.172;2023-07-31T07:25:30;97952.31;;;16.32;100.00
65173;BME280;69059;52.218;5.172;2023-07-31T07:28:20;97960.28;;;16.27;100.00
65173;BME280;69059;52.218;5.172;2023-07-31T07:31:08;97958.94;;;16.30;100.00
65173;BME280;69059;52.218;5.172;2023-07-31T07:33:56;97960.41;;;16.36;100.00
65173;BME280;69059;52.218;5.172;2023-07-31T07:36:45;97962.53;;;16.34;100.00
65173;BME280;69059;52.218;5.172;2023-07-31T07:39:33;97977.63;;;16.28;100.00
65173;BME280;69059;52.218;5.172;2023-07-31T07:42:22;97977.56;;;16.33;100.00
65173;BME280;69059;52.218;5.172;2023-07-31T07:45:10;97972.72;;;16.40;100.00
65173;BME280;69059;52.218;5.172;2023-07-31T07:47:58;97977.78;;;16.37;100.00
65173;BME280;69059;52.218;5.172;2023-07-31T07:50:46;97968.81;;;16.38;100.00
65173;BME280;69059;52.218;5.172;2023-07-31T07:53:36;97959.78;;;16.44;100.00
65173;BME280;69059;52.218;5.172;2023-07-31T07:56:24;97956.00;;;16.50;100.00
65173;BME280;69059;52.218;5.172;2023-07-31T07:59:13;97947.88;;;16.46;100.00
65173;BME280;69059;52.218;5.172;2023-07-31T08:02:01;97933.19;;;16.59;100.00
65173;BME280;69059;52.218;5.172;2023-07-31T08:04:49;97937.59;;;16.69;100.00
65173;BME280;69059;52.218;5.172;2023-07-31T08:07:37;97925.59;;;16.76;100.00
65173;BME280;69059;52.218;5.172;2023-07-31T08:10:27;97931.44;;;16.73;100.00
65173;BME280;69059;52.218;5.172;2023-07-31T08:13:15;97929.59;;;16.74;100.00
65173;BME280;69059;52.218;5.172;2023-07-31T08:16:03;97932.09;;;16.65;100.00
65173;BME280;69059;52.218;5.172;2023-07-31T08:18:51;97925.19;;;16.69;100.00
65173;BME280;69059;52.218;5.172;2023-07-31T08:21:39;97938.88;;;16.71;100.00
65173;BME280;69059;52.218;5.172;2023-07-31T08:24:27;97911.69;;;16.90;100.00
65173;BME280;69059;52.218;5.172;2023-07-31T08:27:17;97904.34;;;16.87;100.00
65173;BME280;69059;52.218;5.172;2023-07-31T08:30:05;97914.38;;;16.84;100.00
65173;BME280;69059;52.218;5.172;2023-07-31T08:32:53;97912.75;;;16.89;100.00
65173;BME280;69059;52.218;5.172;2023-07-31T08:35:42;97912.25;;;16.87;100.00
65173;BME280;69059;52.218;5.172;2023-07-31T08:38:29;97917.16;;;16.93;100.00
65173;BME280;69059;52.218;5.172;2023-07-31T08:41:17;97900.78;;;17.10;100.00
65173;BME280;69059;52.218;5.172;2023-07-31T08:44:07;97903.41;;;17.10;100.00
65173;BME280;69059;52.218;5.172;2023-07-31T08:46:55;97905.69;;;17.16;100.00
65173;BME280;69059;52.218;5.172;2023-07-31T08:49:44;97914.38;;;17.17;100.00
65173;BME280;69059;52.218;5.172;2023-07-31T08:52:34;97909.75;;;17.23;100.00
65173;BME280;69059;52.218;5.172;2023-07-31T08:55:22;97920.41;;;17.17;100.00
65173;BME280;69059;52.218;5.172;2023-07-31T08:58:11;97912.59;;;17.26;100.00
65173;BME280;69059;52.218;5.172;2023-07-31T09:01:04;97915.94;;;17.18;100.00
65173;BME280;69059;52.218;5.172;2023-07-31T09:03:52;97917.88;;;17.26;100.00
65173;BME280;69059;52.218;5.172;2023-07-31T09:06:41;97917.31;;;17.29;100.00
65173;BME280;69059;52.218;5.172;2023-07-31T09:09:30;97932.13;;;17.25;100.00
65173;BME280;69059;52.218;5.172;2023-07-31T09:12:18;97930.28;;;17.26;100.00
65173;BME280;69059;52.218;5.172;2023-07-31T09:15:07;97928.31;;;17.17;100.00
65173;BME280;69059;52.218;5.172;2023-07-31T09:18:14;97932.44;;;17.24;100.00
65173;BME280;69059;52.218;5.172;2023-07-31T09:21:06;97918.94;;;17.25;100.00
65173;BME280;69059;52.218;5.172;2023-07-31T09:23:54;97916.13;;;17.22;100.00
65173;BME280;69059;52.218;5.172;2023-07-31T09:26:42;97913.97;;;17.24;100.00
65173;BME280;69059;52.218;5.172;2023-07-31T09:29:30;97915.53;;;17.25;100.00
65173;BME280;69059;52.218;5.172;2023-07-31T09:32:18;97914.97;;;17.28;100.00
65173;BME280;69059;52.218;5.172;2023-07-31T09:35:14;97912.91;;;17.25;100.00
65173;BME280;69059;52.218;5.172;2023-07-31T09:38:06;97911.47;;;17.32;100.00
65173;BME280;69059;52.218;5.172;2023-07-31T09:40:54;97907.84;;;17.28;100.00
65173;BME280;69059;52.218;5.172;2023-07-31T09:43:43;97914.28;;;17.22;100.00
65173;BME280;69059;52.218;5.172;2023-07-31T09:46:40;97906.47;;;17.31;100.00
65173;BME280;69059;52.218;5.172;2023-07-31T09:49:33;97903.16;;;17.39;100.00
65173;BME280;69059;52.218;5.172;2023-07-31T09:52:23;97898.38;;;17.41;100.00
65173;BME280;69059;52.218;5.172;2023-07-31T09:55:13;97895.22;;;17.39;100.00
65173;BME280;69059;52.218;5.172;2023-07-31T09:58:03;97891.22;;;17.41;100.00
65173;BME280;69059;52.218;5.172;2023-07-31T10:00:51;97897.66;;;17.35;100.00
65173;BME280;69059;52.218;5.172;2023-07-31T10:03:39;97900.31;;;17.35;100.00
65173;BME280;69059;52.218;5.172;2023-07-31T10:06:28;97889.97;;;17.52;100.00
65173;BME280;69059;52.218;5.172;2023-07-31T10:09:20;97887.44;;;17.47;100.00
65173;BME280;69059;52.218;5.172;2023-07-31T10:12:10;97883.69;;;17.62;100.00
65173;BME280;69059;52.218;5.172;2023-07-31T10:15:00;97886.94;;;17.59;100.00
65173;BME280;69059;52.218;5.172;2023-07-31T10:17:48;97887.72;;;17.60;100.00
65173;BME280;69059;52.218;5.172;2023-07-31T10:20:36;97894.38;;;17.57;100.00
65173;BME280;69059;52.218;5.172;2023-07-31T10:23:24;97892.22;;;17.59;100.00
65173;BME280;69059;52.218;5.172;2023-07-31T10:26:16;97897.56;;;17.54;100.00
65173;BME280;69059;52.218;5.172;2023-07-31T10:29:05;97884.91;;;17.70;100.00
65173;BME280;69059;52.218;5.172;2023-07-31T10:31:53;97882.91;;;17.62;100.00
65173;BME280;69059;52.218;5.172;2023-07-31T10:34:42;97878.66;;;17.66;100.00
65173;BME280;69059;52.218;5.172;2023-07-31T10:37:35;97874.91;;;17.80;100.00
65173;BME280;69059;52.218;5.172;2023-07-31T10:40:25;97880.38;;;17.84;100.00
65173;BME280;69059;52.218;5.172;2023-07-31T10:43:24;97865.50;;;17.88;100.00
65173;BME280;69059;52.218;5.172;2023-07-31T10:46:13;97867.50;;;17.69;100.00
65173;BME280;69059;52.218;5.172;2023-07-31T10:49:02;97894.47;;;17.79;100.00
65173;BME280;69059;52.218;5.172;2023-07-31T10:51:50;97905.00;;;17.79;100.00
65173;BME280;69059;52.218;5.172;2023-07-31T10:54:38;97920.75;;;17.71;100.00
65173;BME280;69059;52.218;5.172;2023-07-31T10:57:26;97934.03;;;17.66;100.00
65173;BME280;69059;52.218;5.172;2023-07-31T11:00:25;97939.81;;;17.68;100.00
65173;BME280;69059;52.218;5.172;2023-07-31T11:03:14;97939.41;;;17.74;100.00
65173;BME280;69059;52.218;5.172;2023-07-31T11:06:02;97931.50;;;17.74;100.00
65173;BME280;69059;52.218;5.172;2023-07-31T11:08:50;97949.50;;;17.72;100.00
65173;BME280;69059;52.218;5.172;2023-07-31T11:11:38;97931.69;;;17.78;100.00
65173;BME280;69059;52.218;5.172;2023-07-31T11:14:26;97928.06;;;17.87;100.00
65173;BME280;69059;52.218;5.172;2023-07-31T11:17:16;97920.03;;;18.06;100.00
65173;BME280;69059;52.218;5.172;2023-07-31T11:20:05;97911.38;;;18.14;100.00
65173;BME280;69059;52.218;5.172;2023-07-31T11:22:54;97897.88;;;18.16;100.00
65173;BME280;69059;52.218;5.172;2023-07-31T11:25:42;97905.53;;;18.17;100.00
65173;BME280;69059;52.218;5.172;2023-07-31T11:28:31;97924.88;;;18.13;100.00
65173;BME280;69059;52.218;5.172;2023-07-31T11:31:19;97931.44;;;18.15;100.00
65173;BME280;69059;52.218;5.172;2023-07-31T11:34:09;97920.56;;;18.17;100.00
65173;BME280;69059;52.218;5.172;2023-07-31T11:36:57;97923.41;;;18.20;100.00
65173;BME280;69059;52.218;5.172;2023-07-31T11:39:57;97940.34;;;18.19;100.00
65173;BME280;69059;52.218;5.172;2023-07-31T11:42:46;97940.13;;;18.16;100.00
65173;BME280;69059;52.218;5.172;2023-07-31T11:45:34;97963.34;;;18.05;100.00
65173;BME280;69059;52.218;5.172;2023-07-31T11:48:22;97961.28;;;18.02;100.00
65173;BME280;69059;52.218;5.172;2023-07-31T11:51:12;97951.69;;;18.06;100.00
65173;BME280;69059;52.218;5.172;2023-07-31T11:54:02;97969.78;;;17.99;100.00
65173;BME280;69059;52.218;5.172;2023-07-31T11:56:50;97980.53;;;18.03;100.00
65173;BME280;69059;52.218;5.172;2023-07-31T11:59:38;97973.09;;;18.18;100.00
65173;BME280;69059;52.218;5.172;2023-07-31T12:02:26;97974.25;;;18.12;100.00
65173;BME280;69059;52.218;5.172;2023-07-31T12:05:15;97979.06;;;18.10;100.00
65173;BME280;69059;52.218;5.172;2023-07-31T12:08:05;97980.44;;;18.08;100.00
65173;BME280;69059;52.218;5.172;2023-07-31T12:11:01;98005.50;;;17.97;100.00
65173;BME280;69059;52.218;5.172;2023-07-31T12:13:50;98014.69;;;17.85;100.00
65173;BME280;69059;52.218;5.172;2023-07-31T12:16:38;98007.63;;;17.95;100.00
65173;BME280;69059;52.218;5.172;2023-07-31T12:19:27;98006.56;;;18.09;100.00
65173;BME280;69059;52.218;5.172;2023-07-31T12:22:16;97996.88;;;18.05;100.00
65173;BME280;69059;52.218;5.172;2023-07-31T12:25:06;97984.53;;;18.00;100.00
65173;BME280;69059;52.218;5.172;2023-07-31T12:27:54;97975.75;;;18.05;100.00
65173;BME280;69059;52.218;5.172;2023-07-31T12:30:42;97958.53;;;18.07;100.00
65173;BME280;69059;52.218;5.172;2023-07-31T12:33:30;97942.97;;;18.19;100.00
65173;BME280;69059;52.218;5.172;2023-07-31T12:36:20;97946.00;;;18.13;100.00
65173;BME280;69059;52.218;5.172;2023-07-31T12:39:08;97949.91;;;18.15;100.00
65173;BME280;69059;52.218;5.172;2023-07-31T12:41:58;97952.75;;;18.19;100.00
65173;BME280;69059;52.218;5.172;2023-07-31T12:44:46;97948.13;;;18.24;100.00
65173;BME280;69059;52.218;5.172;2023-07-31T12:47:34;97954.59;;;18.18;100.00
65173;BME280;69059;52.218;5.172;2023-07-31T12:50:22;97944.41;;;18.25;100.00
65173;BME280;69059;52.218;5.172;2023-07-31T12:53:10;97936.19;;;18.27;100.00
65173;BME280;69059;52.218;5.172;2023-07-31T12:55:58;97934.53;;;18.31;100.00
65173;BME280;69059;52.218;5.172;2023-07-31T12:58:47;97920.31;;;18.41;100.00
65173;BME280;69059;52.218;5.172;2023-07-31T13:01:35;97914.78;;;18.51;100.00
65173;BME280;69059;52.218;5.172;2023-07-31T13:04:23;97927.19;;;18.50;100.00
65173;BME280;69059;52.218;5.172;2023-07-31T13:07:11;97918.59;;;18.58;100.00
65173;BME280;69059;52.218;5.172;2023-07-31T13:09:59;97911.22;;;18.69;100.00
65173;BME280;69059;52.218;5.172;2023-07-31T13:12:47;97887.53;;;18.86;100.00
65173;BME280;69059;52.218;5.172;2023-07-31T13:15:37;97888.13;;;18.83;100.00
65173;BME280;69059;52.218;5.172;2023-07-31T13:18:25;97887.06;;;18.84;100.00
65173;BME280;69059;52.218;5.172;2023-07-31T13:21:13;97874.38;;;18.95;100.00
65173;BME280;69059;52.218;5.172;2023-07-31T13:24:01;97850.47;;;19.09;100.00
65173;BME280;69059;52.218;5.172;2023-07-31T13:26:50;97839.69;;;18.96;100.00
65173;BME280;69059;52.218;5.172;2023-07-31T13:29:38;97817.06;;;19.21;100.00
65173;BME280;69059;52.218;5.172;2023-07-31T13:32:29;97804.44;;;19.10;100.00
65173;BME280;69059;52.218;5.172;2023-07-31T13:35:17;97793.56;;;19.20;100.00
65173;BME280;69059;52.218;5.172;2023-07-31T13:38:05;97783.78;;;19.20;100.00
65173;BME280;69059;52.218;5.172;2023-07-31T13:40:53;97782.22;;;19.19;100.00
65173;BME280;69059;52.218;5.172;2023-07-31T13:43:43;97781.44;;;19.19;100.00
65173;BME280;69059;52.218;5.172;2023-07-31T13:46:31;97799.75;;;18.98;100.00
65173;BME280;69059;52.218;5.172;2023-07-31T13:49:21;97813.38;;;18.91;100.00
65173;BME280;69059;52.218;5.172;2023-07-31T13:52:09;97854.97;;;18.77;100.00
65173;BME280;69059;52.218;5.172;2023-07-31T13:54:57;97873.63;;;18.72;100.00
65173;BME280;69059;52.218;5.172;2023-07-31T13:57:45;97883.03;;;18.65;100.00
65173;BME280;69059;52.218;5.172;2023-07-31T14:00:33;97895.09;;;18.57;100.00
65173;BME280;69059;52.218;5.172;2023-07-31T14:03:22;97905.78;;;18.52;100.00
65173;BME280;69059;52.218;5.172;2023-07-31T14:06:11;97913.03;;;18.60;100.00
65173;BME280;69059;52.218;5.172;2023-07-31T14:09:00;97921.53;;;18.57;100.00
65173;BME280;69059;52.218;5.172;2023-07-31T14:11:49;97922.59;;;18.56;100.00
65173;BME280;69059;52.218;5.172;2023-07-31T14:14:37;97908.09;;;18.67;100.00
65173;BME280;69059;52.218;5.172;2023-07-31T14:17:25;97900.75;;;18.64;100.00
65173;BME280;69059;52.218;5.172;2023-07-31T14:20:13;97904.41;;;18.54;100.00
65173;BME280;69059;52.218;5.172;2023-07-31T14:23:03;97898.94;;;18.51;100.00
65173;BME280;69059;52.218;5.172;2023-07-31T14:25:51;97892.88;;;18.50;100.00
65173;BME280;69059;52.218;5.172;2023-07-31T14:28:39;97903.19;;;18.38;100.00
65173;BME280;69059;52.218;5.172;2023-07-31T14:31:27;97904.44;;;18.41;100.00
65173;BME280;69059;52.218;5.172;2023-07-31T14:34:15;97904.34;;;18.46;100.00
65173;BME280;69059;52.218;5.172;2023-07-31T14:37:04;97906.06;;;18.50;100.00
65173;BME280;69059;52.218;5.172;2023-07-31T14:39:54;97905.44;;;18.45;100.00
65173;BME280;69059;52.218;5.172;2023-07-31T14:42:42;97907.81;;;18.33;100.00